Home

Weather

KSLC Current Conditions

KSLC 211854Z 19004KT 10SM CLR 23/M03 A3019 RMK AO2 SLP183 T02281033

KSLC Aviation Forecast

TAF KSLC 211736Z 2118/2224 14004KT P6SM SKC FM211830 33008KT P6SM SKC FM220300 15008KT P6SM SKC FM221500 18012G18KT P6SM FEW100


59° F
Clear
Clear

Clear
Friday
Clear
High 81°/Low 58°
0%
Clear
Saturday
Clear
High 87°/Low 62°
0%
Clear
Sunday
Clear
High 83°/Low 51°
0%
Clear
Monday
Clear
High 71°/Low 45°
0%
Clear
Tuesday
Clear
High 72°/Low 46°
0%
Clear
Wednesday
Clear
High 76°/Low 49°
0%